< < Back
Terminal Aerodrome Forecast


Current Version              Previous Versions:   1  2  3  4  5  6  7  8  9  

Terminal Aerodrome Forecast

323
FTUS44 KMRX 041133
TAFCHA
TAF
KCHA 041133Z 0412/0512 19008KT 4SM -SHRA BR SCT009 BKN020
      TEMPO 0412/0413 1 1/2SM -DZ BR BKN009 OVC015
     FM041500 21007KT P6SM BKN015
     FM041800 22009KT P6SM SCT020 BKN040
     FM042000 21012KT 5SM -SHRA BR BKN030
      TEMPO 0420/0423 3SM -TSRA BR SCT020CB BKN040
     FM042300 23005KT P6SM SCT040 BKN100
     FM050200 20003KT P6SM -SHRA OVC050
     FM050400 00000KT P6SM OVC030
     FM050600 00000KT 4SM -RA BR OVC015=

Latest METAR

980
SAUS80 KWBC 050400 RRA
MTRCHA
METAR KCHA 050353Z 23004KT 4SM -RA BR SCT021 BKN035 BKN050 OVC250 22/21
A3005 RMK AO2 RAB01 SLP167 LAST P0017 T02220206


USA.gov is the U.S. government's official web portal to all federal, state and local government web resources and services.